createdAt,value
2022-08-27T00:01:24.644Z,23.50
2022-08-27T00:03:54.701Z,23.60
2022-08-27T00:06:23.849Z,23.40
2022-08-27T00:08:52.510Z,23.30
2022-08-27T00:11:22.637Z,22.80
2022-08-27T00:13:51.245Z,22.80
2022-08-27T00:16:20.903Z,22.50
2022-08-27T00:18:49.412Z,22.60
2022-08-27T00:21:17.825Z,22.50
2022-08-27T00:23:45.830Z,22.50
2022-08-27T00:26:14.748Z,22.50
2022-08-27T00:28:43.012Z,22.50
2022-08-27T00:31:12.326Z,22.50
2022-08-27T00:33:42.650Z,22.40
2022-08-27T00:36:11.717Z,22.40
2022-08-27T00:38:41.156Z,22.50
2022-08-27T00:41:12.579Z,22.70
2022-08-27T00:43:48.059Z,22.90
2022-08-27T00:46:22.650Z,23.20
2022-08-27T00:48:54.493Z,23.30
2022-08-27T00:51:22.778Z,22.90
2022-08-27T00:53:51.743Z,22.80
2022-08-27T00:56:23.595Z,22.90
2022-08-27T00:58:53.970Z,23.00
2022-08-27T01:01:25.584Z,23.00
2022-08-27T01:04:02.064Z,23.10
2022-08-27T01:06:34.492Z,22.80
2022-08-27T01:09:09.258Z,22.90
2022-08-27T01:11:38.014Z,22.70
2022-08-27T01:14:06.782Z,22.70
2022-08-27T01:16:37.976Z,22.60
2022-08-27T01:19:12.099Z,22.30
2022-08-27T01:21:48.091Z,22.30
2022-08-27T01:24:33.749Z,22.20
2022-08-27T01:27:03.354Z,22.00
2022-08-27T01:29:31.965Z,21.90
2022-08-27T01:32:06.511Z,21.80
2022-08-27T01:34:34.343Z,21.80
2022-08-27T01:37:02.149Z,22.00
2022-08-27T01:39:31.815Z,22.20
2022-08-27T01:42:04.854Z,22.30
2022-08-27T01:44:43.651Z,22.20
2022-08-27T01:47:11.379Z,22.00
2022-08-27T01:49:39.110Z,22.30
2022-08-27T01:52:06.987Z,21.90
2022-08-27T01:54:36.795Z,22.10
2022-08-27T01:57:05.403Z,22.10
2022-08-27T01:59:39.383Z,22.20
2022-08-27T02:02:09.186Z,22.30
2022-08-27T02:04:36.965Z,22.40
2022-08-27T02:07:05.786Z,22.60
2022-08-27T02:09:33.666Z,22.60
2022-08-27T02:12:03.843Z,22.70
2022-08-27T02:14:31.619Z,22.50
2022-08-27T02:16:59.380Z,22.70
2022-08-27T02:19:27.551Z,22.40
2022-08-27T02:21:56.775Z,22.20
2022-08-27T02:24:24.512Z,21.90
2022-08-27T02:26:52.277Z,22.30
2022-08-27T02:29:21.487Z,22.40
2022-08-27T02:31:50.700Z,22.40
2022-08-27T02:34:18.996Z,22.30
2022-08-27T02:36:47.527Z,22.10
2022-08-27T02:39:15.242Z,21.80
2022-08-27T02:41:43.044Z,21.90
2022-08-27T02:44:11.273Z,22.10
2022-08-27T02:46:43.254Z,22.20
2022-08-27T02:49:11.475Z,22.20
2022-08-27T02:51:39.390Z,22.50
2022-08-27T02:54:09.541Z,22.20
2022-08-27T02:56:38.891Z,22.10
2022-08-27T02:59:06.802Z,21.90
2022-08-27T03:01:34.707Z,21.80
2022-08-27T03:04:04.210Z,22.00
2022-08-27T03:06:32.012Z,21.90
2022-08-27T03:08:59.992Z,21.80
2022-08-27T03:11:27.826Z,21.70
2022-08-27T03:13:55.745Z,21.70
2022-08-27T03:16:23.596Z,21.60
2022-08-27T03:18:51.406Z,21.70
2022-08-27T03:21:23.870Z,22.00
2022-08-27T03:23:52.044Z,21.90
2022-08-27T03:26:20.234Z,22.00
2022-08-27T03:28:48.343Z,22.20
2022-08-27T03:31:27.235Z,22.20
2022-08-27T03:33:57.033Z,22.10
2022-08-27T03:36:26.325Z,22.10
2022-08-27T03:38:54.397Z,21.90
2022-08-27T03:41:22.736Z,22.00
2022-08-27T03:44:07.654Z,22.10
2022-08-27T03:46:35.424Z,22.00
2022-08-27T03:49:03.193Z,21.90
2022-08-27T03:51:33.437Z,21.90
2022-08-27T03:54:01.194Z,21.70
2022-08-27T03:56:30.227Z,21.70
2022-08-27T03:58:57.972Z,21.80
2022-08-27T04:01:26.442Z,22.10
2022-08-27T04:03:54.321Z,21.40
2022-08-27T04:06:22.625Z,21.10
2022-08-27T04:08:51.755Z,21.40
2022-08-27T04:11:19.516Z,21.60
2022-08-27T04:13:47.301Z,21.30
2022-08-27T04:16:15.170Z,21.10
2022-08-27T04:18:42.990Z,21.00
2022-08-27T04:21:12.980Z,21.20
2022-08-27T04:23:41.024Z,21.30
2022-08-27T04:26:11.916Z,21.40
2022-08-27T04:28:40.385Z,21.50
2022-08-27T04:31:16.252Z,21.40
2022-08-27T04:33:51.229Z,21.30
2022-08-27T04:36:20.446Z,21.20
2022-08-27T04:38:48.342Z,20.80
2022-08-27T04:41:21.091Z,20.70
2022-08-27T04:43:50.132Z,20.70
2022-08-27T04:46:22.854Z,21.10
2022-08-27T04:48:50.972Z,21.10
2022-08-27T04:51:19.001Z,21.00
2022-08-27T04:53:49.520Z,20.80
2022-08-27T04:56:21.730Z,20.80
2022-08-27T04:58:50.374Z,20.60
2022-08-27T05:01:19.809Z,20.80
2022-08-27T05:03:47.687Z,21.10
2022-08-27T05:06:16.317Z,21.10
2022-08-27T05:08:44.667Z,20.90
2022-08-27T05:11:14.972Z,20.80
2022-08-27T05:13:44.633Z,21.00
2022-08-27T05:16:15.090Z,20.80
2022-08-27T05:18:48.281Z,20.50
2022-08-27T05:21:20.411Z,20.70
2022-08-27T05:23:48.673Z,20.90
2022-08-27T05:26:16.869Z,21.10
2022-08-27T05:28:46.354Z,21.40
2022-08-27T05:31:15.973Z,21.50
2022-08-27T05:33:44.648Z,21.00
2022-08-27T05:36:17.283Z,20.70
2022-08-27T05:38:45.162Z,20.80
2022-08-27T05:41:14.740Z,20.70
2022-08-27T05:43:49.853Z,21.00
2022-08-27T05:46:20.789Z,21.30
2022-08-27T05:48:49.547Z,21.50
2022-08-27T05:51:25.735Z,21.60
2022-08-27T05:53:56.569Z,21.10
2022-08-27T05:56:26.372Z,20.90
2022-08-27T05:59:13.024Z,20.80
2022-08-27T06:01:43.383Z,20.90
2022-08-27T06:04:11.993Z,20.70
2022-08-27T06:06:47.181Z,20.50
2022-08-27T06:09:17.556Z,20.70
2022-08-27T06:11:45.621Z,20.90
2022-08-27T06:14:15.075Z,20.70
2022-08-27T06:16:43.950Z,21.10
2022-08-27T06:19:12.569Z,21.20
2022-08-27T06:21:40.944Z,20.60
2022-08-27T06:24:09.553Z,20.60
2022-08-27T06:26:37.304Z,20.40
2022-08-27T06:29:05.999Z,20.20
2022-08-27T06:31:35.808Z,20.20
2022-08-27T06:34:07.590Z,20.10
2022-08-27T06:36:38.397Z,20.10
2022-08-27T06:39:07.059Z,20.30
2022-08-27T06:41:35.893Z,20.30
2022-08-27T06:44:04.343Z,20.50
2022-08-27T06:46:32.149Z,20.60
2022-08-27T06:49:02.078Z,20.90
2022-08-27T06:51:32.485Z,20.50
2022-08-27T06:54:02.017Z,20.50
2022-08-27T06:56:31.029Z,20.80
2022-08-27T06:59:00.759Z,20.90
2022-08-27T07:01:30.712Z,20.90
2022-08-27T07:03:59.979Z,21.20
2022-08-27T07:06:31.646Z,21.30
2022-08-27T07:09:00.163Z,21.40
2022-08-27T07:11:29.458Z,21.60
2022-08-27T07:13:57.222Z,21.50
2022-08-27T07:16:27.009Z,21.50
2022-08-27T07:18:56.339Z,21.70
2022-08-27T07:21:25.019Z,21.40
2022-08-27T07:23:55.897Z,21.10
2022-08-27T07:26:24.959Z,20.90
2022-08-27T07:28:53.524Z,20.70
2022-08-27T07:31:24.148Z,20.70
2022-08-27T07:33:53.336Z,20.50
2022-08-27T07:36:21.450Z,20.60
2022-08-27T07:38:57.012Z,21.00
2022-08-27T07:41:32.091Z,20.70
2022-08-27T07:44:14.514Z,20.40
2022-08-27T07:46:47.925Z,20.20
2022-08-27T07:49:16.405Z,20.50
2022-08-27T07:51:44.311Z,20.60
2022-08-27T07:54:12.121Z,20.90
2022-08-27T07:56:41.299Z,20.70
2022-08-27T07:59:09.595Z,20.90
2022-08-27T08:01:37.662Z,20.70
2022-08-27T08:04:05.792Z,20.40
2022-08-27T08:06:33.545Z,20.30
2022-08-27T08:09:01.713Z,20.30
2022-08-27T08:11:30.138Z,20.70
2022-08-27T08:13:59.190Z,21.00
2022-08-27T08:16:31.581Z,21.10
2022-08-27T08:19:00.419Z,21.10
2022-08-27T08:21:28.478Z,21.10
2022-08-27T08:23:56.263Z,21.10
2022-08-27T08:26:24.449Z,21.20
2022-08-27T08:28:52.238Z,21.40
2022-08-27T08:31:21.733Z,21.50
2022-08-27T08:33:49.511Z,21.60
2022-08-27T08:36:18.842Z,21.10
2022-08-27T08:38:47.808Z,21.00
2022-08-27T08:41:38.774Z,20.90
2022-08-27T08:44:14.542Z,20.90
2022-08-27T08:46:50.874Z,21.00
2022-08-27T08:49:31.561Z,20.90
2022-08-27T08:52:09.770Z,21.00
2022-08-27T08:54:38.541Z,21.10
2022-08-27T08:57:12.571Z,20.90
2022-08-27T08:59:55.719Z,20.80
2022-08-27T09:02:24.826Z,21.00
2022-08-27T09:04:54.887Z,21.30
2022-08-27T09:07:30.280Z,21.60
2022-08-27T09:10:04.557Z,21.40
2022-08-27T09:12:33.479Z,21.10
2022-08-27T09:15:06.257Z,21.00
2022-08-27T09:17:38.451Z,21.30
2022-08-27T09:20:07.864Z,21.40
2022-08-27T09:22:50.234Z,21.60
2022-08-27T09:25:21.871Z,21.80
2022-08-27T09:27:56.610Z,21.90
2022-08-27T09:30:30.497Z,21.40
2022-08-27T09:33:02.607Z,21.30
2022-08-27T09:35:39.982Z,21.40
2022-08-27T09:38:08.019Z,21.40
2022-08-27T09:40:42.631Z,21.20
2022-08-27T09:43:22.390Z,21.30
2022-08-27T09:45:53.070Z,21.10
2022-08-27T09:48:25.885Z,21.10
2022-08-27T09:50:55.960Z,20.80
2022-08-27T09:53:27.905Z,20.70
2022-08-27T09:55:58.285Z,20.70
2022-08-27T09:58:29.406Z,20.50
2022-08-27T10:01:02.834Z,20.60
2022-08-27T10:03:33.515Z,20.60
2022-08-27T10:06:01.652Z,20.30
2022-08-27T10:08:36.712Z,20.50
2022-08-27T10:11:07.665Z,20.60
2022-08-27T10:13:52.859Z,20.50
2022-08-27T10:16:37.814Z,20.50
2022-08-27T10:19:19.532Z,20.20
2022-08-27T10:21:53.610Z,20.50
2022-08-27T10:24:29.003Z,20.60
2022-08-27T10:27:07.795Z,20.60
2022-08-27T10:29:43.016Z,20.50
2022-08-27T10:32:20.250Z,20.60
2022-08-27T10:35:05.078Z,21.00
2022-08-27T10:37:46.023Z,21.10
2022-08-27T10:40:19.419Z,20.80
2022-08-27T10:42:57.803Z,20.70
2022-08-27T10:45:34.619Z,20.70
2022-08-27T10:48:11.033Z,20.50
2022-08-27T10:50:47.743Z,20.80
2022-08-27T10:53:27.574Z,21.10
2022-08-27T10:56:15.778Z,21.10
2022-08-27T10:59:06.936Z,20.80
2022-08-27T11:01:44.703Z,20.70
2022-08-27T11:04:19.287Z,20.80
2022-08-27T11:06:57.900Z,20.80
2022-08-27T11:09:36.067Z,20.80
2022-08-27T11:12:14.218Z,20.80
2022-08-27T11:14:50.670Z,20.60
2022-08-27T11:17:26.659Z,20.60
2022-08-27T11:20:04.539Z,21.00
2022-08-27T11:22:38.006Z,21.00
2022-08-27T11:25:14.107Z,21.10
2022-08-27T11:27:42.708Z,21.40
2022-08-27T11:30:18.892Z,20.90
2022-08-27T11:32:54.764Z,21.00
2022-08-27T11:35:31.676Z,20.80
2022-08-27T11:38:21.354Z,20.70
2022-08-27T11:41:02.731Z,21.00
2022-08-27T11:43:35.611Z,21.10
2022-08-27T11:46:06.280Z,21.30
2022-08-27T11:48:36.965Z,21.50
2022-08-27T11:51:08.777Z,21.20
2022-08-27T11:53:51.930Z,21.00
2022-08-27T11:56:39.657Z,21.20
2022-08-27T11:59:22.652Z,21.10
2022-08-27T12:01:52.286Z,21.10
2022-08-27T12:04:34.643Z,21.10
2022-08-27T12:07:05.717Z,20.90
2022-08-27T12:09:55.141Z,21.10
2022-08-27T12:12:34.170Z,21.10
2022-08-27T12:15:06.742Z,21.10
2022-08-27T12:17:43.382Z,21.20
2022-08-27T12:20:22.895Z,21.30
2022-08-27T12:23:20.469Z,21.40
2022-08-27T12:26:01.478Z,21.40
2022-08-27T12:28:29.322Z,21.30
2022-08-27T12:30:58.562Z,21.00
2022-08-27T12:33:31.437Z,21.20
2022-08-27T12:36:07.251Z,21.30
2022-08-27T12:38:43.794Z,21.40
2022-08-27T12:41:27.663Z,21.60
2022-08-27T12:44:05.117Z,21.60
2022-08-27T12:46:33.443Z,21.80
2022-08-27T12:49:35.831Z,21.70
2022-08-27T12:51:53.466Z,21.70
2022-08-27T12:54:32.295Z,21.60
2022-08-27T12:57:06.319Z,21.60
2022-08-27T13:00:02.231Z,21.50
2022-08-27T13:02:48.594Z,21.60
2022-08-27T13:05:20.988Z,22.00
2022-08-27T13:07:50.959Z,21.80
2022-08-27T13:10:25.159Z,21.80
2022-08-27T13:13:04.706Z,21.50
2022-08-27T13:15:34.047Z,21.60
2022-08-27T13:18:03.596Z,21.60
2022-08-27T13:20:33.127Z,21.70
2022-08-27T13:23:00.871Z,21.90
2022-08-27T13:25:30.821Z,22.00
2022-08-27T13:28:07.663Z,22.20
2022-08-27T13:30:37.859Z,22.40
2022-08-27T13:33:07.707Z,22.60
2022-08-27T13:35:37.524Z,22.50
2022-08-27T13:38:07.034Z,22.50
2022-08-27T13:40:37.007Z,22.40
2022-08-27T13:43:08.712Z,22.60
2022-08-27T13:45:39.781Z,22.30
2022-08-27T13:48:08.534Z,22.20
2022-08-27T13:50:38.100Z,22.50
2022-08-27T13:53:26.220Z,22.60
2022-08-27T13:55:55.870Z,22.80
2022-08-27T13:58:27.152Z,22.60
2022-08-27T14:01:07.702Z,22.30
2022-08-27T14:03:39.015Z,22.10
2022-08-27T14:06:08.204Z,22.10
2022-08-27T14:08:37.300Z,22.20
2022-08-27T14:11:08.015Z,22.30
2022-08-27T14:13:43.500Z,22.40
2022-08-27T14:16:25.050Z,22.90
2022-08-27T14:18:59.262Z,22.80
2022-08-27T14:21:27.398Z,22.70
2022-08-27T14:23:55.854Z,22.90
2022-08-27T14:26:24.053Z,22.80
2022-08-27T14:28:51.866Z,22.90
2022-08-27T14:31:21.122Z,22.80
2022-08-27T14:33:48.933Z,22.70
2022-08-27T14:36:17.211Z,22.60
2022-08-27T14:38:46.977Z,22.50
2022-08-27T14:41:14.951Z,22.50
2022-08-27T14:43:49.102Z,22.30
2022-08-27T14:46:25.230Z,22.20
2022-08-27T14:48:53.992Z,22.30
2022-08-27T14:51:25.510Z,22.30
2022-08-27T14:53:53.705Z,22.60
2022-08-27T14:56:22.461Z,22.80
2022-08-27T14:58:50.938Z,22.80
2022-08-27T15:01:23.103Z,22.70
2022-08-27T15:03:51.749Z,22.50
2022-08-27T15:06:22.055Z,22.40
2022-08-27T15:08:52.468Z,22.30
2022-08-27T15:11:23.621Z,22.60
2022-08-27T15:13:51.563Z,22.50
2022-08-27T15:16:30.759Z,22.70
2022-08-27T15:19:01.082Z,23.00
2022-08-27T15:21:30.386Z,22.70
2022-08-27T15:24:01.831Z,22.70
2022-08-27T15:26:30.783Z,22.60
2022-08-27T15:29:01.662Z,22.80
2022-08-27T15:31:33.354Z,23.00
2022-08-27T15:34:01.096Z,22.90
2022-08-27T15:36:28.875Z,23.00
2022-08-27T15:38:56.769Z,23.40
2022-08-27T15:41:28.647Z,23.20
2022-08-27T15:43:57.715Z,23.10
2022-08-27T15:46:26.457Z,22.80
2022-08-27T15:48:55.611Z,22.70
2022-08-27T15:51:32.825Z,22.70
2022-08-27T15:54:01.603Z,22.60
2022-08-27T15:56:34.296Z,22.40
2022-08-27T15:59:02.425Z,22.20
2022-08-27T16:01:32.874Z,22.50
2022-08-27T16:04:03.036Z,22.70
2022-08-27T16:06:31.028Z,22.60
2022-08-27T16:08:58.816Z,22.50
2022-08-27T16:11:26.630Z,22.30
2022-08-27T16:13:55.563Z,21.70
2022-08-27T16:16:26.878Z,21.80
2022-08-27T16:18:54.938Z,22.00
2022-08-27T16:21:24.058Z,22.00
2022-08-27T16:23:51.996Z,21.90
2022-08-27T16:26:19.754Z,22.20
2022-08-27T16:28:47.481Z,22.20
2022-08-27T16:31:15.920Z,22.30
2022-08-27T16:33:44.451Z,22.20
2022-08-27T16:36:12.897Z,22.00
2022-08-27T16:38:42.447Z,21.90
2022-08-27T16:41:10.586Z,22.00
2022-08-27T16:43:39.687Z,22.10
2022-08-27T16:46:08.202Z,21.90
2022-08-27T16:49:01.112Z,22.10
2022-08-27T16:51:33.188Z,22.10
2022-08-27T16:54:06.602Z,22.00
2022-08-27T16:56:37.649Z,22.00
2022-08-27T16:59:06.534Z,22.00
2022-08-27T17:01:35.161Z,22.10
2022-08-27T17:04:17.270Z,22.30
2022-08-27T17:06:52.368Z,22.50
2022-08-27T17:09:21.509Z,22.60
2022-08-27T17:12:00.877Z,22.50
2022-08-27T17:14:37.880Z,22.00
2022-08-27T17:17:06.350Z,21.80
2022-08-27T17:19:36.978Z,21.80
2022-08-27T17:22:05.351Z,22.00
2022-08-27T17:24:34.423Z,22.10
2022-08-27T17:27:02.647Z,22.30
2022-08-27T17:29:30.373Z,22.10
2022-08-27T17:31:58.089Z,21.80
2022-08-27T17:34:26.613Z,21.90
2022-08-27T17:36:54.960Z,21.90
2022-08-27T17:39:22.743Z,22.20
2022-08-27T17:41:53.365Z,22.30
2022-08-27T17:44:24.376Z,22.10
2022-08-27T17:46:54.071Z,22.00
2022-08-27T17:49:22.689Z,22.00
2022-08-27T17:51:51.911Z,22.00
2022-08-27T17:54:28.969Z,22.00
2022-08-27T17:56:58.337Z,22.20
2022-08-27T17:59:26.273Z,22.10
2022-08-27T18:01:54.547Z,21.60
2022-08-27T18:04:22.515Z,21.40
2022-08-27T18:06:50.297Z,21.20
2022-08-27T18:09:18.073Z,21.60
2022-08-27T18:11:46.537Z,21.80
2022-08-27T18:14:18.410Z,22.00
2022-08-27T18:16:46.473Z,22.20
2022-08-27T18:19:14.355Z,22.40
2022-08-27T18:21:46.417Z,22.20
2022-08-27T18:24:15.373Z,22.10
2022-08-27T18:26:44.247Z,21.90
2022-08-27T18:29:13.433Z,21.80
2022-08-27T18:31:43.901Z,21.80
2022-08-27T18:34:11.614Z,22.10
2022-08-27T18:36:39.339Z,22.20
2022-08-27T18:39:07.166Z,22.30
2022-08-27T18:41:35.057Z,22.20
2022-08-27T18:44:04.640Z,21.90
2022-08-27T18:46:46.234Z,21.70
2022-08-27T18:49:14.016Z,21.70
2022-08-27T18:51:43.498Z,21.40
2022-08-27T18:54:11.860Z,21.20
2022-08-27T18:56:39.622Z,21.20
2022-08-27T18:59:07.381Z,21.50
2022-08-27T19:01:35.271Z,21.60
2022-08-27T19:04:05.739Z,21.60
2022-08-27T19:06:33.689Z,21.50
2022-08-27T19:09:02.123Z,21.80
2022-08-27T19:11:29.994Z,21.80
2022-08-27T19:13:57.723Z,21.60
2022-08-27T19:16:32.818Z,21.60
2022-08-27T19:19:00.629Z,21.60
2022-08-27T19:21:29.701Z,21.60
2022-08-27T19:23:58.207Z,21.90
2022-08-27T19:26:27.279Z,22.20
2022-08-27T19:28:55.129Z,22.00
2022-08-27T19:31:22.992Z,21.80
2022-08-27T19:33:51.984Z,21.60
2022-08-27T19:36:21.412Z,22.00
2022-08-27T19:38:52.292Z,22.20
2022-08-27T19:41:22.874Z,22.30
2022-08-27T19:43:53.767Z,22.30
2022-08-27T19:46:24.186Z,22.20
2022-08-27T19:48:52.236Z,22.10
2022-08-27T19:51:20.451Z,22.20
2022-08-27T19:53:48.470Z,22.30
2022-08-27T19:56:18.309Z,22.40
2022-08-27T19:58:46.450Z,22.50
2022-08-27T20:01:14.404Z,22.40
2022-08-27T20:03:42.299Z,22.30
2022-08-27T20:06:10.436Z,22.10
2022-08-27T20:08:38.172Z,22.20
2022-08-27T20:11:06.005Z,22.30
2022-08-27T20:13:35.587Z,22.40
2022-08-27T20:16:06.015Z,22.30
2022-08-27T20:18:36.225Z,22.40
2022-08-27T20:21:05.782Z,22.50
2022-08-27T20:23:34.148Z,22.50
2022-08-27T20:26:02.059Z,22.60
2022-08-27T20:28:45.280Z,22.50
2022-08-27T20:31:15.338Z,22.30
2022-08-27T20:33:43.267Z,22.00
2022-08-27T20:36:12.827Z,21.80
2022-08-27T20:38:40.860Z,21.80
2022-08-27T20:41:09.097Z,21.60
2022-08-27T20:43:36.907Z,21.50
2022-08-27T20:46:05.209Z,21.70
2022-08-27T20:48:34.367Z,21.80
2022-08-27T20:51:02.277Z,21.70
2022-08-27T20:53:30.013Z,21.00
2022-08-27T20:55:57.729Z,20.70
2022-08-27T20:58:43.174Z,20.60
2022-08-27T21:01:11.676Z,20.80
2022-08-27T21:03:41.041Z,21.10
2022-08-27T21:06:08.944Z,20.90
2022-08-27T21:08:39.145Z,21.20
2022-08-27T21:11:11.832Z,21.30
2022-08-27T21:13:55.268Z,21.50
2022-08-27T21:16:23.924Z,21.70
2022-08-27T21:18:53.934Z,21.70
2022-08-27T21:21:22.083Z,21.40
2022-08-27T21:23:50.053Z,21.30
2022-08-27T21:26:19.541Z,21.10
2022-08-27T21:28:47.237Z,20.80
2022-08-27T21:31:14.979Z,21.00
2022-08-27T21:33:42.693Z,21.20
2022-08-27T21:36:12.456Z,21.30
2022-08-27T21:38:40.584Z,21.40
2022-08-27T21:41:08.441Z,21.20
2022-08-27T21:43:36.677Z,21.10
2022-08-27T21:46:05.823Z,21.30
2022-08-27T21:48:33.552Z,21.20
2022-08-27T21:51:08.209Z,21.40
2022-08-27T21:53:37.966Z,21.30
2022-08-27T21:56:06.018Z,21.50
2022-08-27T21:58:34.711Z,21.60
2022-08-27T22:01:04.251Z,21.30
2022-08-27T22:03:33.960Z,21.30
2022-08-27T22:06:01.726Z,20.70
2022-08-27T22:08:29.483Z,20.90
2022-08-27T22:11:00.091Z,21.00
2022-08-27T22:13:28.162Z,21.30
2022-08-27T22:15:56.069Z,21.10
2022-08-27T22:18:24.050Z,21.10
2022-08-27T22:20:52.770Z,21.00
2022-08-27T22:23:21.071Z,21.10
2022-08-27T22:25:49.474Z,21.20
2022-08-27T22:28:18.743Z,21.30
2022-08-27T22:30:46.615Z,21.30
2022-08-27T22:33:15.456Z,21.00
2022-08-27T22:35:43.583Z,21.00
2022-08-27T22:38:12.215Z,20.90
2022-08-27T22:40:40.543Z,20.80
2022-08-27T22:43:08.634Z,21.00
2022-08-27T22:45:37.967Z,21.30
2022-08-27T22:48:05.902Z,21.40
2022-08-27T22:50:33.882Z,21.30
2022-08-27T22:53:01.737Z,21.00
2022-08-27T22:55:29.771Z,20.90
2022-08-27T22:57:57.856Z,20.70
2022-08-27T23:00:29.047Z,20.60
2022-08-27T23:03:00.573Z,20.50
2022-08-27T23:05:40.451Z,20.40
2022-08-27T23:08:12.446Z,20.50
2022-08-27T23:10:41.083Z,20.40
2022-08-27T23:13:09.650Z,20.60
2022-08-27T23:15:38.514Z,20.90
2022-08-27T23:18:08.186Z,20.90
2022-08-27T23:20:36.274Z,20.60
2022-08-27T23:23:04.118Z,20.40
2022-08-27T23:25:49.406Z,20.00
2022-08-27T23:28:17.607Z,20.30
2022-08-27T23:30:46.578Z,20.40
2022-08-27T23:33:16.259Z,20.50
2022-08-27T23:35:47.986Z,20.80
2022-08-27T23:38:16.741Z,20.70
2022-08-27T23:40:45.436Z,20.50
2022-08-27T23:43:14.096Z,20.30
2022-08-27T23:45:43.432Z,19.90
2022-08-27T23:48:12.936Z,19.80
2022-08-27T23:50:42.507Z,19.90
2022-08-27T23:53:10.858Z,19.90
2022-08-27T23:55:40.324Z,19.90
2022-08-27T23:58:08.803Z,20.00
